sensor_id;sensor_type;location;lat;lon;timestamp;P1;durP1;ratioP1;P2;durP2;ratioP2
50128;SDS011;36026;45.478;9.224;2023-05-27T00:00:14;13.77;;;10.02;;
50128;SDS011;36026;45.478;9.224;2023-05-27T00:03:17;17.27;;;9.60;;
50128;SDS011;36026;45.478;9.224;2023-05-27T00:06:19;14.45;;;9.10;;
50128;SDS011;36026;45.478;9.224;2023-05-27T00:09:21;14.13;;;9.52;;
50128;SDS011;36026;45.478;9.224;2023-05-27T00:12:22;11.65;;;9.20;;
50128;SDS011;36026;45.478;9.224;2023-05-27T00:15:24;16.58;;;9.13;;
50128;SDS011;36026;45.478;9.224;2023-05-27T00:18:28;15.07;;;9.48;;
50128;SDS011;36026;45.478;9.224;2023-05-27T00:21:33;17.58;;;9.80;;
50128;SDS011;36026;45.478;9.224;2023-05-27T00:24:34;14.75;;;8.80;;
50128;SDS011;36026;45.478;9.224;2023-05-27T00:27:37;12.47;;;8.57;;
50128;SDS011;36026;45.478;9.224;2023-05-27T00:30:39;19.58;;;9.30;;
50128;SDS011;36026;45.478;9.224;2023-05-27T00:33:43;17.98;;;10.35;;
50128;SDS011;36026;45.478;9.224;2023-05-27T00:36:45;13.50;;;9.50;;
50128;SDS011;36026;45.478;9.224;2023-05-27T00:39:47;17.52;;;10.45;;
50128;SDS011;36026;45.478;9.224;2023-05-27T00:42:48;18.05;;;10.65;;
50128;SDS011;36026;45.478;9.224;2023-05-27T00:45:50;13.73;;;9.32;;
50128;SDS011;36026;45.478;9.224;2023-05-27T00:48:53;16.00;;;9.88;;
50128;SDS011;36026;45.478;9.224;2023-05-27T00:51:55;14.60;;;9.40;;
50128;SDS011;36026;45.478;9.224;2023-05-27T00:54:57;13.43;;;8.93;;
50128;SDS011;36026;45.478;9.224;2023-05-27T00:57:59;15.05;;;9.73;;
50128;SDS011;36026;45.478;9.224;2023-05-27T01:01:01;16.58;;;9.27;;
50128;SDS011;36026;45.478;9.224;2023-05-27T01:04:04;16.15;;;9.77;;
50128;SDS011;36026;45.478;9.224;2023-05-27T01:07:08;16.88;;;9.25;;
50128;SDS011;36026;45.478;9.224;2023-05-27T01:10:14;14.43;;;9.55;;
50128;SDS011;36026;45.478;9.224;2023-05-27T01:13:20;22.88;;;10.48;;
50128;SDS011;36026;45.478;9.224;2023-05-27T01:16:27;13.30;;;9.90;;
50128;SDS011;36026;45.478;9.224;2023-05-27T01:19:33;14.93;;;9.73;;
50128;SDS011;36026;45.478;9.224;2023-05-27T01:22:37;15.95;;;10.27;;
50128;SDS011;36026;45.478;9.224;2023-05-27T01:25:41;14.77;;;9.45;;
50128;SDS011;36026;45.478;9.224;2023-05-27T01:28:43;16.17;;;9.57;;
50128;SDS011;36026;45.478;9.224;2023-05-27T01:31:46;14.85;;;8.82;;
50128;SDS011;36026;45.478;9.224;2023-05-27T01:34:51;15.80;;;9.70;;
50128;SDS011;36026;45.478;9.224;2023-05-27T01:37:56;14.10;;;9.48;;
50128;SDS011;36026;45.478;9.224;2023-05-27T01:41:00;13.32;;;9.73;;
50128;SDS011;36026;45.478;9.224;2023-05-27T01:44:02;14.95;;;9.40;;
50128;SDS011;36026;45.478;9.224;2023-05-27T01:47:05;15.77;;;10.23;;
50128;SDS011;36026;45.478;9.224;2023-05-27T01:50:07;14.07;;;9.55;;
50128;SDS011;36026;45.478;9.224;2023-05-27T01:53:10;14.15;;;10.57;;
50128;SDS011;36026;45.478;9.224;2023-05-27T01:59:14;13.77;;;10.00;;
50128;SDS011;36026;45.478;9.224;2023-05-27T02:02:16;18.75;;;10.38;;
50128;SDS011;36026;45.478;9.224;2023-05-27T02:05:17;14.73;;;9.75;;
50128;SDS011;36026;45.478;9.224;2023-05-27T02:08:20;15.25;;;9.70;;
50128;SDS011;36026;45.478;9.224;2023-05-27T02:14:25;12.18;;;9.48;;
50128;SDS011;36026;45.478;9.224;2023-05-27T02:17:27;11.38;;;8.55;;
50128;SDS011;36026;45.478;9.224;2023-05-27T02:20:28;14.93;;;9.50;;
50128;SDS011;36026;45.478;9.224;2023-05-27T02:23:31;15.35;;;9.48;;
50128;SDS011;36026;45.478;9.224;2023-05-27T02:26:33;11.82;;;9.40;;
50128;SDS011;36026;45.478;9.224;2023-05-27T02:29:35;12.40;;;8.65;;
50128;SDS011;36026;45.478;9.224;2023-05-27T02:32:37;13.07;;;8.90;;
50128;SDS011;36026;45.478;9.224;2023-05-27T02:35:38;14.77;;;9.10;;
50128;SDS011;36026;45.478;9.224;2023-05-27T02:38:41;15.55;;;9.25;;
50128;SDS011;36026;45.478;9.224;2023-05-27T02:41:44;13.10;;;9.07;;
50128;SDS011;36026;45.478;9.224;2023-05-27T02:44:46;13.13;;;9.30;;
50128;SDS011;36026;45.478;9.224;2023-05-27T02:47:48;14.63;;;9.00;;
50128;SDS011;36026;45.478;9.224;2023-05-27T02:50:50;13.25;;;9.48;;
50128;SDS011;36026;45.478;9.224;2023-05-27T02:53:53;15.55;;;9.02;;
50128;SDS011;36026;45.478;9.224;2023-05-27T02:56:54;10.60;;;8.50;;
50128;SDS011;36026;45.478;9.224;2023-05-27T02:59:56;10.80;;;8.43;;
50128;SDS011;36026;45.478;9.224;2023-05-27T03:02:57;13.57;;;7.93;;
50128;SDS011;36026;45.478;9.224;2023-05-27T03:05:59;11.20;;;7.88;;
50128;SDS011;36026;45.478;9.224;2023-05-27T03:09:03;11.40;;;7.55;;
50128;SDS011;36026;45.478;9.224;2023-05-27T03:12:05;10.63;;;6.55;;
50128;SDS011;36026;45.478;9.224;2023-05-27T03:15:07;9.80;;;5.55;;
50128;SDS011;36026;45.478;9.224;2023-05-27T03:18:09;7.63;;;5.80;;
50128;SDS011;36026;45.478;9.224;2023-05-27T03:21:10;10.75;;;5.90;;
50128;SDS011;36026;45.478;9.224;2023-05-27T03:24:14;9.02;;;5.90;;
50128;SDS011;36026;45.478;9.224;2023-05-27T03:27:15;6.55;;;4.95;;
50128;SDS011;36026;45.478;9.224;2023-05-27T03:30:17;6.55;;;4.60;;
50128;SDS011;36026;45.478;9.224;2023-05-27T03:33:18;6.68;;;4.72;;
50128;SDS011;36026;45.478;9.224;2023-05-27T03:36:20;7.53;;;5.03;;
50128;SDS011;36026;45.478;9.224;2023-05-27T03:39:23;7.63;;;5.63;;
50128;SDS011;36026;45.478;9.224;2023-05-27T03:42:25;9.13;;;6.22;;
50128;SDS011;36026;45.478;9.224;2023-05-27T03:45:26;12.15;;;7.57;;
50128;SDS011;36026;45.478;9.224;2023-05-27T03:48:28;13.70;;;8.48;;
50128;SDS011;36026;45.478;9.224;2023-05-27T03:51:30;11.50;;;8.93;;
50128;SDS011;36026;45.478;9.224;2023-05-27T03:54:33;14.68;;;9.23;;
50128;SDS011;36026;45.478;9.224;2023-05-27T03:57:35;11.70;;;9.10;;
50128;SDS011;36026;45.478;9.224;2023-05-27T04:00:37;15.07;;;9.50;;
50128;SDS011;36026;45.478;9.224;2023-05-27T04:03:39;12.77;;;8.20;;
50128;SDS011;36026;45.478;9.224;2023-05-27T04:06:41;11.25;;;8.32;;
50128;SDS011;36026;45.478;9.224;2023-05-27T04:09:45;11.60;;;7.72;;
50128;SDS011;36026;45.478;9.224;2023-05-27T04:12:47;15.02;;;7.53;;
50128;SDS011;36026;45.478;9.224;2023-05-27T04:15:48;9.48;;;6.65;;
50128;SDS011;36026;45.478;9.224;2023-05-27T04:18:50;11.43;;;7.03;;
50128;SDS011;36026;45.478;9.224;2023-05-27T04:21:52;12.85;;;7.40;;
50128;SDS011;36026;45.478;9.224;2023-05-27T04:24:55;9.35;;;6.60;;
50128;SDS011;36026;45.478;9.224;2023-05-27T04:27:57;9.02;;;5.90;;
50128;SDS011;36026;45.478;9.224;2023-05-27T04:30:58;6.72;;;5.57;;
50128;SDS011;36026;45.478;9.224;2023-05-27T04:34:01;6.55;;;4.60;;
50128;SDS011;36026;45.478;9.224;2023-05-27T04:37:04;7.35;;;4.30;;
50128;SDS011;36026;45.478;9.224;2023-05-27T04:40:07;6.72;;;4.38;;
50128;SDS011;36026;45.478;9.224;2023-05-27T04:43:11;4.75;;;3.53;;
50128;SDS011;36026;45.478;9.224;2023-05-27T04:46:14;4.97;;;3.00;;
50128;SDS011;36026;45.478;9.224;2023-05-27T04:49:16;5.55;;;3.63;;
50128;SDS011;36026;45.478;9.224;2023-05-27T04:52:18;4.50;;;3.03;;
50128;SDS011;36026;45.478;9.224;2023-05-27T04:55:24;4.97;;;3.00;;
50128;SDS011;36026;45.478;9.224;2023-05-27T04:58:26;4.88;;;2.60;;
50128;SDS011;36026;45.478;9.224;2023-05-27T05:01:28;5.45;;;3.17;;
50128;SDS011;36026;45.478;9.224;2023-05-27T05:04:39;4.55;;;2.85;;
50128;SDS011;36026;45.478;9.224;2023-05-27T05:07:41;5.88;;;3.42;;
50128;SDS011;36026;45.478;9.224;2023-05-27T05:10:45;4.07;;;2.90;;
50128;SDS011;36026;45.478;9.224;2023-05-27T05:13:47;5.00;;;3.05;;
50128;SDS011;36026;45.478;9.224;2023-05-27T05:16:48;4.80;;;3.30;;
50128;SDS011;36026;45.478;9.224;2023-05-27T05:19:50;4.95;;;3.35;;
50128;SDS011;36026;45.478;9.224;2023-05-27T05:22:52;5.90;;;3.50;;
50128;SDS011;36026;45.478;9.224;2023-05-27T05:25:55;4.32;;;3.70;;
50128;SDS011;36026;45.478;9.224;2023-05-27T05:29:05;4.25;;;3.58;;
50128;SDS011;36026;45.478;9.224;2023-05-27T05:32:07;4.68;;;3.92;;
50128;SDS011;36026;45.478;9.224;2023-05-27T05:35:11;4.45;;;3.60;;
50128;SDS011;36026;45.478;9.224;2023-05-27T05:38:12;4.72;;;3.30;;
50128;SDS011;36026;45.478;9.224;2023-05-27T05:41:16;7.40;;;4.00;;
50128;SDS011;36026;45.478;9.224;2023-05-27T05:44:18;5.47;;;3.92;;
50128;SDS011;36026;45.478;9.224;2023-05-27T05:47:20;7.22;;;4.45;;
50128;SDS011;36026;45.478;9.224;2023-05-27T05:50:21;6.25;;;4.22;;
50128;SDS011;36026;45.478;9.224;2023-05-27T05:53:23;5.03;;;3.88;;
50128;SDS011;36026;45.478;9.224;2023-05-27T05:56:26;7.35;;;4.40;;
50128;SDS011;36026;45.478;9.224;2023-05-27T05:59:28;6.47;;;5.07;;
50128;SDS011;36026;45.478;9.224;2023-05-27T06:02:30;6.03;;;4.43;;
50128;SDS011;36026;45.478;9.224;2023-05-27T06:05:31;5.25;;;4.10;;
50128;SDS011;36026;45.478;9.224;2023-05-27T06:08:33;5.88;;;4.82;;
50128;SDS011;36026;45.478;9.224;2023-05-27T06:11:36;6.70;;;5.00;;
50128;SDS011;36026;45.478;9.224;2023-05-27T06:14:38;8.25;;;5.13;;
50128;SDS011;36026;45.478;9.224;2023-05-27T06:17:40;6.57;;;4.90;;
50128;SDS011;36026;45.478;9.224;2023-05-27T06:20:42;7.40;;;5.30;;
50128;SDS011;36026;45.478;9.224;2023-05-27T06:23:44;6.13;;;5.15;;
50128;SDS011;36026;45.478;9.224;2023-05-27T06:26:47;9.63;;;5.25;;
50128;SDS011;36026;45.478;9.224;2023-05-27T06:29:49;10.68;;;4.75;;
50128;SDS011;36026;45.478;9.224;2023-05-27T06:32:51;7.35;;;4.70;;
50128;SDS011;36026;45.478;9.224;2023-05-27T06:35:53;8.15;;;5.18;;
50128;SDS011;36026;45.478;9.224;2023-05-27T06:38:55;6.82;;;5.28;;
50128;SDS011;36026;45.478;9.224;2023-05-27T06:41:58;7.68;;;6.03;;
50128;SDS011;36026;45.478;9.224;2023-05-27T06:45:00;7.25;;;5.20;;
50128;SDS011;36026;45.478;9.224;2023-05-27T06:48:01;8.00;;;5.75;;
50128;SDS011;36026;45.478;9.224;2023-05-27T06:51:04;6.47;;;5.30;;
50128;SDS011;36026;45.478;9.224;2023-05-27T06:54:07;8.67;;;5.83;;
50128;SDS011;36026;45.478;9.224;2023-05-27T06:57:10;8.75;;;5.78;;
50128;SDS011;36026;45.478;9.224;2023-05-27T07:00:12;6.47;;;5.32;;
50128;SDS011;36026;45.478;9.224;2023-05-27T07:03:14;7.75;;;5.97;;
50128;SDS011;36026;45.478;9.224;2023-05-27T07:06:15;7.03;;;5.55;;
50128;SDS011;36026;45.478;9.224;2023-05-27T07:09:18;10.30;;;5.63;;
50128;SDS011;36026;45.478;9.224;2023-05-27T07:12:21;8.07;;;5.72;;
50128;SDS011;36026;45.478;9.224;2023-05-27T07:15:24;7.47;;;5.40;;
50128;SDS011;36026;45.478;9.224;2023-05-27T07:18:27;6.88;;;5.88;;
50128;SDS011;36026;45.478;9.224;2023-05-27T07:21:29;10.30;;;6.22;;
50128;SDS011;36026;45.478;9.224;2023-05-27T07:24:30;7.85;;;6.07;;
50128;SDS011;36026;45.478;9.224;2023-05-27T07:27:34;8.65;;;5.78;;
50128;SDS011;36026;45.478;9.224;2023-05-27T07:30:36;8.10;;;6.18;;
50128;SDS011;36026;45.478;9.224;2023-05-27T07:33:38;8.25;;;5.65;;
50128;SDS011;36026;45.478;9.224;2023-05-27T07:36:40;6.35;;;5.50;;
50128;SDS011;36026;45.478;9.224;2023-05-27T07:39:42;10.63;;;6.25;;
50128;SDS011;36026;45.478;9.224;2023-05-27T07:42:45;8.70;;;5.78;;
50128;SDS011;36026;45.478;9.224;2023-05-27T07:45:47;10.88;;;5.88;;
50128;SDS011;36026;45.478;9.224;2023-05-27T07:48:48;8.73;;;6.10;;
50128;SDS011;36026;45.478;9.224;2023-05-27T07:51:50;8.07;;;6.18;;
50128;SDS011;36026;45.478;9.224;2023-05-27T07:54:52;11.52;;;6.38;;
50128;SDS011;36026;45.478;9.224;2023-05-27T07:57:55;8.52;;;5.85;;
50128;SDS011;36026;45.478;9.224;2023-05-27T08:00:56;8.00;;;5.88;;
50128;SDS011;36026;45.478;9.224;2023-05-27T08:03:58;7.85;;;6.57;;
50128;SDS011;36026;45.478;9.224;2023-05-27T08:07:00;9.52;;;5.60;;
50128;SDS011;36026;45.478;9.224;2023-05-27T08:10:02;8.18;;;5.45;;
50128;SDS011;36026;45.478;9.224;2023-05-27T08:13:05;7.38;;;6.28;;
50128;SDS011;36026;45.478;9.224;2023-05-27T08:19:09;7.57;;;5.70;;
50128;SDS011;36026;45.478;9.224;2023-05-27T08:22:11;8.88;;;6.00;;
50128;SDS011;36026;45.478;9.224;2023-05-27T08:25:13;10.18;;;5.80;;
50128;SDS011;36026;45.478;9.224;2023-05-27T08:28:17;12.50;;;6.10;;
50128;SDS011;36026;45.478;9.224;2023-05-27T08:31:18;10.05;;;5.63;;
50128;SDS011;36026;45.478;9.224;2023-05-27T08:34:20;9.82;;;5.70;;
50128;SDS011;36026;45.478;9.224;2023-05-27T08:37:22;9.05;;;5.50;;
50128;SDS011;36026;45.478;9.224;2023-05-27T08:40:24;7.40;;;5.50;;
50128;SDS011;36026;45.478;9.224;2023-05-27T08:43:27;8.13;;;5.78;;
50128;SDS011;36026;45.478;9.224;2023-05-27T08:46:28;8.18;;;5.60;;
50128;SDS011;36026;45.478;9.224;2023-05-27T08:49:31;8.05;;;6.13;;
50128;SDS011;36026;45.478;9.224;2023-05-27T08:52:33;8.13;;;5.85;;
50128;SDS011;36026;45.478;9.224;2023-05-27T08:55:35;8.23;;;6.18;;
50128;SDS011;36026;45.478;9.224;2023-05-27T08:58:40;8.55;;;6.07;;
50128;SDS011;36026;45.478;9.224;2023-05-27T09:01:43;8.48;;;5.90;;
50128;SDS011;36026;45.478;9.224;2023-05-27T09:04:45;8.03;;;5.93;;
50128;SDS011;36026;45.478;9.224;2023-05-27T09:07:47;7.72;;;6.57;;
50128;SDS011;36026;45.478;9.224;2023-05-27T09:10:49;13.27;;;6.88;;
50128;SDS011;36026;45.478;9.224;2023-05-27T09:13:54;10.00;;;6.63;;
50128;SDS011;36026;45.478;9.224;2023-05-27T09:16:56;8.75;;;6.15;;
50128;SDS011;36026;45.478;9.224;2023-05-27T09:19:58;9.43;;;7.00;;
50128;SDS011;36026;45.478;9.224;2023-05-27T09:23:00;7.10;;;5.97;;
50128;SDS011;36026;45.478;9.224;2023-05-27T09:26:06;8.15;;;6.60;;
50128;SDS011;36026;45.478;9.224;2023-05-27T09:29:10;10.15;;;5.93;;
50128;SDS011;36026;45.478;9.224;2023-05-27T09:32:12;7.75;;;6.47;;
50128;SDS011;36026;45.478;9.224;2023-05-27T09:35:15;9.45;;;6.35;;
50128;SDS011;36026;45.478;9.224;2023-05-27T09:38:17;9.82;;;6.00;;
50128;SDS011;36026;45.478;9.224;2023-05-27T09:41:22;8.27;;;6.78;;
50128;SDS011;36026;45.478;9.224;2023-05-27T09:44:27;7.25;;;6.30;;
50128;SDS011;36026;45.478;9.224;2023-05-27T09:47:30;7.00;;;6.22;;
50128;SDS011;36026;45.478;9.224;2023-05-27T09:50:32;9.77;;;6.72;;
50128;SDS011;36026;45.478;9.224;2023-05-27T09:53:34;7.40;;;6.28;;
50128;SDS011;36026;45.478;9.224;2023-05-27T09:56:36;8.32;;;7.13;;
50128;SDS011;36026;45.478;9.224;2023-05-27T09:59:39;8.13;;;7.20;;
50128;SDS011;36026;45.478;9.224;2023-05-27T10:02:42;8.75;;;7.25;;
50128;SDS011;36026;45.478;9.224;2023-05-27T10:05:48;8.43;;;7.07;;
50128;SDS011;36026;45.478;9.224;2023-05-27T10:08:51;9.70;;;7.00;;
50128;SDS011;36026;45.478;9.224;2023-05-27T10:14:56;8.75;;;6.47;;
50128;SDS011;36026;45.478;9.224;2023-05-27T10:17:59;7.95;;;7.13;;
50128;SDS011;36026;45.478;9.224;2023-05-27T10:21:03;9.52;;;6.80;;
50128;SDS011;36026;45.478;9.224;2023-05-27T10:24:09;8.25;;;6.60;;
50128;SDS011;36026;45.478;9.224;2023-05-27T10:27:11;7.72;;;6.50;;
50128;SDS011;36026;45.478;9.224;2023-05-27T10:30:15;9.02;;;6.95;;
50128;SDS011;36026;45.478;9.224;2023-05-27T10:33:17;9.75;;;7.20;;
50128;SDS011;36026;45.478;9.224;2023-05-27T10:39:32;7.78;;;7.00;;
50128;SDS011;36026;45.478;9.224;2023-05-27T10:42:34;12.03;;;8.57;;
50128;SDS011;36026;45.478;9.224;2023-05-27T10:45:37;9.73;;;7.30;;
50128;SDS011;36026;45.478;9.224;2023-05-27T10:48:39;10.30;;;8.00;;
50128;SDS011;36026;45.478;9.224;2023-05-27T10:51:41;9.43;;;7.07;;
50128;SDS011;36026;45.478;9.224;2023-05-27T10:54:44;8.48;;;7.20;;
50128;SDS011;36026;45.478;9.224;2023-05-27T10:57:46;9.43;;;6.97;;
50128;SDS011;36026;45.478;9.224;2023-05-27T11:00:50;11.75;;;9.10;;
50128;SDS011;36026;45.478;9.224;2023-05-27T11:03:52;8.40;;;7.53;;
50128;SDS011;36026;45.478;9.224;2023-05-27T11:06:57;8.38;;;6.72;;
50128;SDS011;36026;45.478;9.224;2023-05-27T11:09:59;10.20;;;9.05;;
50128;SDS011;36026;45.478;9.224;2023-05-27T11:13:01;10.90;;;7.80;;
50128;SDS011;36026;45.478;9.224;2023-05-27T11:16:05;9.80;;;8.80;;
50128;SDS011;36026;45.478;9.224;2023-05-27T11:19:10;11.15;;;8.32;;
50128;SDS011;36026;45.478;9.224;2023-05-27T11:22:12;10.05;;;8.85;;
50128;SDS011;36026;45.478;9.224;2023-05-27T11:25:14;8.88;;;7.43;;
50128;SDS011;36026;45.478;9.224;2023-05-27T11:28:16;11.30;;;7.22;;
50128;SDS011;36026;45.478;9.224;2023-05-27T11:31:20;9.57;;;8.60;;
50128;SDS011;36026;45.478;9.224;2023-05-27T11:34:22;9.75;;;8.25;;
50128;SDS011;36026;45.478;9.224;2023-05-27T11:37:24;8.17;;;7.37;;
50128;SDS011;36026;45.478;9.224;2023-05-27T11:40:35;8.70;;;7.55;;
50128;SDS011;36026;45.478;9.224;2023-05-27T11:43:46;8.40;;;7.30;;
50128;SDS011;36026;45.478;9.224;2023-05-27T11:46:50;8.02;;;7.22;;
50128;SDS011;36026;45.478;9.224;2023-05-27T11:49:53;8.75;;;6.30;;
50128;SDS011;36026;45.478;9.224;2023-05-27T11:52:55;8.15;;;6.97;;
50128;SDS011;36026;45.478;9.224;2023-05-27T11:55:57;7.93;;;5.95;;
50128;SDS011;36026;45.478;9.224;2023-05-27T11:58:59;9.32;;;8.35;;
50128;SDS011;36026;45.478;9.224;2023-05-27T12:02:02;7.00;;;6.30;;
50128;SDS011;36026;45.478;9.224;2023-05-27T12:05:04;11.60;;;7.40;;
50128;SDS011;36026;45.478;9.224;2023-05-27T12:08:08;9.73;;;7.07;;
50128;SDS011;36026;45.478;9.224;2023-05-27T12:11:09;7.35;;;6.40;;
50128;SDS011;36026;45.478;9.224;2023-05-27T12:14:11;9.40;;;6.78;;
50128;SDS011;36026;45.478;9.224;2023-05-27T12:17:14;9.35;;;7.13;;
50128;SDS011;36026;45.478;9.224;2023-05-27T12:20:16;7.10;;;6.40;;
50128;SDS011;36026;45.478;9.224;2023-05-27T12:26:20;7.82;;;6.38;;
50128;SDS011;36026;45.478;9.224;2023-05-27T12:29:22;7.72;;;6.78;;
50128;SDS011;36026;45.478;9.224;2023-05-27T12:32:27;6.38;;;5.45;;
50128;SDS011;36026;45.478;9.224;2023-05-27T12:35:29;5.35;;;4.65;;
50128;SDS011;36026;45.478;9.224;2023-05-27T12:38:31;6.95;;;4.95;;
50128;SDS011;36026;45.478;9.224;2023-05-27T12:44:34;6.88;;;5.40;;
50128;SDS011;36026;45.478;9.224;2023-05-27T12:47:37;6.38;;;4.60;;
50128;SDS011;36026;45.478;9.224;2023-05-27T12:50:39;6.97;;;5.28;;
50128;SDS011;36026;45.478;9.224;2023-05-27T12:56:43;7.93;;;5.80;;
50128;SDS011;36026;45.478;9.224;2023-05-27T12:59:44;6.45;;;5.75;;
50128;SDS011;36026;45.478;9.224;2023-05-27T13:02:48;7.38;;;5.10;;
50128;SDS011;36026;45.478;9.224;2023-05-27T13:05:50;8.32;;;6.25;;
50128;SDS011;36026;45.478;9.224;2023-05-27T13:08:52;6.55;;;5.72;;
50128;SDS011;36026;45.478;9.224;2023-05-27T13:11:54;6.35;;;5.32;;
50128;SDS011;36026;45.478;9.224;2023-05-27T13:14:57;6.60;;;5.28;;
50128;SDS011;36026;45.478;9.224;2023-05-27T13:18:00;5.43;;;4.90;;
50128;SDS011;36026;45.478;9.224;2023-05-27T13:21:03;5.90;;;5.03;;
50128;SDS011;36026;45.478;9.224;2023-05-27T13:24:06;6.72;;;5.47;;
50128;SDS011;36026;45.478;9.224;2023-05-27T13:27:08;7.68;;;4.93;;
50128;SDS011;36026;45.478;9.224;2023-05-27T13:30:10;6.38;;;5.65;;
50128;SDS011;36026;45.478;9.224;2023-05-27T13:33:16;6.13;;;5.15;;
50128;SDS011;36026;45.478;9.224;2023-05-27T13:36:18;7.97;;;5.32;;
50128;SDS011;36026;45.478;9.224;2023-05-27T13:39:19;6.70;;;5.00;;
50128;SDS011;36026;45.478;9.224;2023-05-27T13:42:21;7.05;;;5.60;;
50128;SDS011;36026;45.478;9.224;2023-05-27T13:45:23;7.97;;;5.85;;
50128;SDS011;36026;45.478;9.224;2023-05-27T13:48:26;6.18;;;4.82;;
50128;SDS011;36026;45.478;9.224;2023-05-27T13:51:29;4.63;;;4.20;;
50128;SDS011;36026;45.478;9.224;2023-05-27T13:54:30;6.93;;;4.85;;
50128;SDS011;36026;45.478;9.224;2023-05-27T13:57:32;6.70;;;5.15;;
50128;SDS011;36026;45.478;9.224;2023-05-27T14:00:34;7.57;;;5.82;;
50128;SDS011;36026;45.478;9.224;2023-05-27T14:03:37;6.28;;;5.13;;
50128;SDS011;36026;45.478;9.224;2023-05-27T14:06:39;4.85;;;4.35;;
50128;SDS011;36026;45.478;9.224;2023-05-27T14:09:41;6.88;;;5.25;;
50128;SDS011;36026;45.478;9.224;2023-05-27T14:12:43;5.68;;;5.07;;
50128;SDS011;36026;45.478;9.224;2023-05-27T14:15:44;5.85;;;4.72;;
50128;SDS011;36026;45.478;9.224;2023-05-27T14:21:49;6.50;;;4.68;;
50128;SDS011;36026;45.478;9.224;2023-05-27T14:24:51;6.22;;;5.25;;
50128;SDS011;36026;45.478;9.224;2023-05-27T14:27:52;5.45;;;4.53;;
50128;SDS011;36026;45.478;9.224;2023-05-27T14:30:55;7.55;;;5.45;;
50128;SDS011;36026;45.478;9.224;2023-05-27T14:33:58;9.02;;;5.80;;
50128;SDS011;36026;45.478;9.224;2023-05-27T14:37:00;6.35;;;5.68;;
50128;SDS011;36026;45.478;9.224;2023-05-27T14:40:01;13.95;;;6.95;;
50128;SDS011;36026;45.478;9.224;2023-05-27T14:46:05;9.60;;;7.47;;
50128;SDS011;36026;45.478;9.224;2023-05-27T14:49:09;8.35;;;6.75;;
50128;SDS011;36026;45.478;9.224;2023-05-27T14:52:10;7.03;;;5.85;;
50128;SDS011;36026;45.478;9.224;2023-05-27T14:55:12;9.27;;;6.60;;
50128;SDS011;36026;45.478;9.224;2023-05-27T14:58:14;7.97;;;6.20;;
50128;SDS011;36026;45.478;9.224;2023-05-27T15:01:16;9.13;;;7.38;;
50128;SDS011;36026;45.478;9.224;2023-05-27T15:04:19;9.07;;;7.03;;
50128;SDS011;36026;45.478;9.224;2023-05-27T15:07:21;7.63;;;5.78;;
50128;SDS011;36026;45.478;9.224;2023-05-27T15:10:22;9.10;;;6.90;;
50128;SDS011;36026;45.478;9.224;2023-05-27T15:13:27;8.55;;;6.80;;
50128;SDS011;36026;45.478;9.224;2023-05-27T15:16:29;11.10;;;6.30;;
50128;SDS011;36026;45.478;9.224;2023-05-27T15:19:33;10.15;;;6.53;;
50128;SDS011;36026;45.478;9.224;2023-05-27T15:22:35;8.73;;;6.78;;
50128;SDS011;36026;45.478;9.224;2023-05-27T15:25:37;14.35;;;6.65;;
50128;SDS011;36026;45.478;9.224;2023-05-27T15:28:38;11.40;;;7.07;;
50128;SDS011;36026;45.478;9.224;2023-05-27T15:31:40;9.02;;;7.18;;
50128;SDS011;36026;45.478;9.224;2023-05-27T15:34:43;8.98;;;7.32;;
50128;SDS011;36026;45.478;9.224;2023-05-27T15:37:45;14.90;;;6.72;;
50128;SDS011;36026;45.478;9.224;2023-05-27T15:40:47;8.80;;;6.18;;
50128;SDS011;36026;45.478;9.224;2023-05-27T15:43:49;9.50;;;6.18;;
50128;SDS011;36026;45.478;9.224;2023-05-27T15:46:50;8.40;;;6.80;;
50128;SDS011;36026;45.478;9.224;2023-05-27T15:49:54;7.88;;;6.22;;
50128;SDS011;36026;45.478;9.224;2023-05-27T15:52:55;11.80;;;7.88;;
50128;SDS011;36026;45.478;9.224;2023-05-27T15:55:57;8.55;;;6.88;;
50128;SDS011;36026;45.478;9.224;2023-05-27T15:58:59;8.82;;;6.38;;
50128;SDS011;36026;45.478;9.224;2023-05-27T16:02:00;10.20;;;6.50;;
50128;SDS011;36026;45.478;9.224;2023-05-27T16:05:04;8.88;;;6.88;;
50128;SDS011;36026;45.478;9.224;2023-05-27T16:08:07;10.13;;;7.65;;
50128;SDS011;36026;45.478;9.224;2023-05-27T16:11:09;11.60;;;7.85;;
50128;SDS011;36026;45.478;9.224;2023-05-27T16:14:11;9.63;;;7.53;;
50128;SDS011;36026;45.478;9.224;2023-05-27T16:17:12;8.57;;;6.60;;
50128;SDS011;36026;45.478;9.224;2023-05-27T16:20:15;9.45;;;7.20;;
50128;SDS011;36026;45.478;9.224;2023-05-27T16:23:18;9.75;;;6.82;;
50128;SDS011;36026;45.478;9.224;2023-05-27T16:26:19;9.65;;;8.00;;
50128;SDS011;36026;45.478;9.224;2023-05-27T16:29:21;11.27;;;8.65;;
50128;SDS011;36026;45.478;9.224;2023-05-27T16:32:23;10.23;;;7.40;;
50128;SDS011;36026;45.478;9.224;2023-05-27T16:35:28;10.18;;;7.65;;
50128;SDS011;36026;45.478;9.224;2023-05-27T16:41:33;10.85;;;7.30;;
50128;SDS011;36026;45.478;9.224;2023-05-27T16:47:36;9.48;;;6.88;;
50128;SDS011;36026;45.478;9.224;2023-05-27T16:50:39;11.38;;;7.57;;
50128;SDS011;36026;45.478;9.224;2023-05-27T16:53:41;10.98;;;7.03;;
50128;SDS011;36026;45.478;9.224;2023-05-27T16:56:42;8.35;;;6.38;;
50128;SDS011;36026;45.478;9.224;2023-05-27T16:59:44;9.57;;;6.50;;
50128;SDS011;36026;45.478;9.224;2023-05-27T17:02:46;8.68;;;6.63;;
50128;SDS011;36026;45.478;9.224;2023-05-27T17:05:49;8.75;;;5.78;;
50128;SDS011;36026;45.478;9.224;2023-05-27T17:08:51;9.40;;;6.25;;
50128;SDS011;36026;45.478;9.224;2023-05-27T17:11:52;8.85;;;6.68;;
50128;SDS011;36026;45.478;9.224;2023-05-27T17:14:54;9.83;;;6.03;;
50128;SDS011;36026;45.478;9.224;2023-05-27T17:17:56;8.30;;;6.70;;
50128;SDS011;36026;45.478;9.224;2023-05-27T17:21:00;13.25;;;6.13;;
50128;SDS011;36026;45.478;9.224;2023-05-27T17:24:02;10.25;;;6.75;;
50128;SDS011;36026;45.478;9.224;2023-05-27T17:27:04;9.67;;;7.03;;
50128;SDS011;36026;45.478;9.224;2023-05-27T17:30:08;9.02;;;7.38;;
50128;SDS011;36026;45.478;9.224;2023-05-27T17:33:11;9.00;;;6.47;;
50128;SDS011;36026;45.478;9.224;2023-05-27T17:36:14;11.80;;;6.50;;
50128;SDS011;36026;45.478;9.224;2023-05-27T17:39:16;14.85;;;6.15;;
50128;SDS011;36026;45.478;9.224;2023-05-27T17:42:17;9.05;;;6.72;;
50128;SDS011;36026;45.478;9.224;2023-05-27T17:45:19;8.20;;;6.32;;
50128;SDS011;36026;45.478;9.224;2023-05-27T17:48:20;7.95;;;6.22;;
50128;SDS011;36026;45.478;9.224;2023-05-27T17:51:24;8.88;;;5.95;;
50128;SDS011;36026;45.478;9.224;2023-05-27T17:54:27;7.65;;;5.72;;
50128;SDS011;36026;45.478;9.224;2023-05-27T17:57:29;17.33;;;6.55;;
50128;SDS011;36026;45.478;9.224;2023-05-27T18:00:31;8.48;;;6.03;;
50128;SDS011;36026;45.478;9.224;2023-05-27T18:03:33;9.85;;;6.22;;
50128;SDS011;36026;45.478;9.224;2023-05-27T18:06:36;8.50;;;5.72;;
50128;SDS011;36026;45.478;9.224;2023-05-27T18:09:38;9.88;;;5.68;;
50128;SDS011;36026;45.478;9.224;2023-05-27T18:12:40;14.13;;;5.95;;
50128;SDS011;36026;45.478;9.224;2023-05-27T18:15:42;10.25;;;5.57;;
50128;SDS011;36026;45.478;9.224;2023-05-27T18:18:44;10.55;;;6.40;;
50128;SDS011;36026;45.478;9.224;2023-05-27T18:21:47;8.00;;;5.53;;
50128;SDS011;36026;45.478;9.224;2023-05-27T18:24:48;10.48;;;5.65;;
50128;SDS011;36026;45.478;9.224;2023-05-27T18:27:50;7.40;;;5.15;;
50128;SDS011;36026;45.478;9.224;2023-05-27T18:30:52;6.07;;;5.22;;
50128;SDS011;36026;45.478;9.224;2023-05-27T18:33:54;8.90;;;5.90;;
50128;SDS011;36026;45.478;9.224;2023-05-27T18:36:57;7.75;;;5.80;;
50128;SDS011;36026;45.478;9.224;2023-05-27T18:39:59;8.88;;;5.35;;
50128;SDS011;36026;45.478;9.224;2023-05-27T18:43:01;7.93;;;5.80;;
50128;SDS011;36026;45.478;9.224;2023-05-27T18:46:05;8.35;;;5.50;;
50128;SDS011;36026;45.478;9.224;2023-05-27T18:49:07;12.32;;;7.30;;